Аэропорт: Нальчик. Нальчик

ICAO: URMN

METAR:
2018/07/16 19:00
URMN 161900Z 22004MPS 9999 SCT/// 20/14 Q1008 R24/////// NOSIG RMK QFE719
METAR:
2018/05/05 09:12
TAF TAF URMN 050800Z 0509/0521 04003MPS 9999 SCT030 
      TEMPO 0512/0518 SCT020CB